Time;durP1;ratioP1;P1;durP2;ratioP2;P2;SDS_P1;SDS_P2;PMS_P1;PMS_P2;Temp;Humidity;BMP_temperature;BMP_pressure;BME280_temperature;BME280_humidity;BME280_pressure;Samples;Min_cycle;Max_cycle;Signal;HPM_P1;HPM_P2
2022/05/13 00:00:17;;;;;;;11.90;5.40;;;20.40;55.90;;;17.09;72.20;95958.00;5013707;28;20034;-54
2022/05/13 00:02:45;;;;;;;13.25;5.93;;;20.40;56.20;;;16.90;73.69;95959.19;4996000;28;20033;-51
2022/05/13 00:05:12;;;;;;;15.25;6.78;;;20.30;56.80;;;16.68;75.42;95949.03;5013363;28;20030;-53
2022/05/13 00:07:38;;;;;;;11.07;5.65;;;20.20;57.20;;;16.61;75.69;95949.41;5014088;28;20025;-51
2022/05/13 00:10:07;;;;;;;10.30;6.90;;;20.10;57.50;;;16.53;76.90;95942.00;5010811;28;20488;-48
2022/05/13 00:12:40;;;;;;;9.63;6.32;;;20.00;57.90;;;16.47;77.13;95932.41;5009197;28;20030;-52
2022/05/13 00:15:16;;;;;;;;;;;19.90;58.30;;;16.39;77.35;95944.66;4996783;28;20026;-50
2022/05/13 00:17:42;;;;;;;10.95;6.97;;;19.70;57.60;;;16.28;78.37;95945.88;5012948;28;19909;-48
2022/05/13 00:20:12;;;;;;;12.75;7.00;;;19.70;58.00;;;16.27;78.89;95946.97;4996367;28;20057;-49
2022/05/13 00:22:54;;;;;;;11.25;6.57;;;19.70;58.80;;;16.18;79.16;95952.19;5012460;28;20022;-50
2022/05/13 00:25:30;;;;;;;12.25;6.97;;;19.60;59.40;;;16.07;79.85;95948.84;5013876;28;20565;-49
2022/05/13 00:28:05;;;;;;;14.80;7.30;;;19.50;59.40;;;16.01;79.93;95949.22;4996388;28;20377;-49
2022/05/13 00:30:37;;;;;;;12.75;7.82;;;19.40;59.90;;;15.95;80.69;95943.09;4994875;28;20036;-48
2022/05/13 00:33:12;;;;;;;14.98;8.10;;;19.40;60.00;;;15.88;81.32;95939.97;5013631;28;20021;-50
2022/05/13 00:35:38;;;;;;;12.13;7.97;;;19.30;60.60;;;15.82;81.28;95941.94;5013870;28;20034;-48
2022/05/13 00:38:05;;;;;;;11.48;7.70;;;19.30;60.60;;;15.78;81.15;95932.84;5007922;28;20054;-48
2022/05/13 00:40:33;;;;;;;12.80;8.15;;;19.20;60.90;;;15.73;82.18;95928.38;5012252;28;20045;-56
2022/05/13 00:43:03;;;;;;;12.85;8.00;;;19.20;61.30;;;15.68;82.49;95922.25;5013283;28;20026;-48
2022/05/13 00:45:32;;;;;;;11.15;8.60;;;19.10;61.60;;;15.62;83.00;95926.06;5012206;28;20026;-49
2022/05/13 00:47:59;;;;;;;10.60;8.45;;;19.20;62.20;;;15.58;82.93;95915.09;5023044;28;20025;-50
2022/05/13 00:50:30;;;;;;;16.35;9.10;;;19.10;62.20;;;15.53;83.76;95912.47;5026769;28;20026;-48
2022/05/13 00:53:02;;;;;;;18.90;8.60;;;19.00;62.50;;;15.45;83.92;95918.50;5011436;28;20068;-52
2022/05/13 00:55:38;;;;;;;13.05;9.70;;;19.00;62.70;;;15.37;83.52;95917.22;5005766;28;20022;-48
2022/05/13 00:58:08;;;;;;;15.57;9.30;;;18.90;63.20;;;15.34;83.71;95914.31;4995406;28;20038;-48
2022/05/13 01:00:36;;;;;;;10.48;8.52;;;18.80;63.20;;;15.36;83.44;95910.28;5009604;28;20232;-50
2022/05/13 01:03:06;;;;;;;13.68;8.27;;;18.80;63.50;;;15.37;83.33;95913.75;5012646;28;20084;-52
2022/05/13 01:05:41;;;;;;;14.40;9.18;;;18.80;63.60;;;15.36;83.26;95906.78;5020729;28;20030;-49
2022/05/13 01:08:11;;;;;;;15.25;9.60;;;18.80;63.90;;;15.33;84.19;95904.69;5007560;28;20033;-49
2022/05/13 01:10:47;;;;;;;17.23;9.77;;;18.80;64.00;;;15.30;84.34;95906.03;4992654;28;20022;-48
2022/05/13 01:13:28;;;;;;;15.27;10.77;;;18.80;64.40;;;15.20;84.83;95885.50;5030788;28;20037;-48
2022/05/13 01:16:00;;;;;;;15.07;9.60;;;18.70;64.50;;;15.20;84.88;95887.38;5031312;28;20416;-48
2022/05/13 01:18:44;;;;;;;14.55;9.82;;;18.70;64.70;;;15.19;84.54;95891.13;5033404;28;20026;-52
2022/05/13 01:21:18;;;;;;;16.80;9.57;;;18.70;64.80;;;15.19;84.84;95891.94;5034902;28;20048;-50
2022/05/13 01:23:45;;;;;;;16.23;10.18;;;18.70;64.70;;;15.18;84.90;95893.03;5019374;28;20033;-48
2022/05/13 01:26:22;;;;;;;16.38;10.10;;;18.60;64.90;;;15.18;85.00;95881.50;5035215;28;20033;-48
2022/05/13 01:28:56;;;;;;;13.68;10.23;;;18.70;65.40;;;15.15;85.22;95871.34;5035130;28;20435;-48
2022/05/13 01:31:32;;;;;;;15.30;9.30;;;18.60;65.40;;;15.13;85.43;95874.28;5034908;28;20069;-49
2022/05/13 01:34:00;;;;;;;16.15;10.27;;;18.60;65.60;;;15.09;85.09;95867.13;5034830;28;20395;-48
2022/05/13 01:36:27;;;;;;;13.90;10.10;;;18.60;65.30;;;15.13;84.91;95870.81;5034944;28;20075;-48
2022/05/13 01:38:55;;;;;;;14.25;10.13;;;18.60;65.50;;;15.10;85.59;95868.69;5018220;28;20120;-50
2022/05/13 01:41:25;;;;;;;14.85;10.45;;;18.60;65.70;;;15.10;85.97;95863.34;5034680;28;20171;-49
2022/05/13 01:43:52;;;;;;;17.08;10.95;;;18.60;66.10;;;15.12;85.74;95875.38;5034553;28;20040;-48
2022/05/13 01:46:20;;;;;;;13.93;10.90;;;18.60;66.00;;;15.10;85.98;95874.06;5034405;28;20060;-50
2022/05/13 01:48:47;;;;;;;17.52;11.02;;;18.60;66.10;;;15.11;86.02;95878.38;5035632;28;20029;-49
2022/05/13 01:51:13;;;;;;;15.23;11.02;;;18.60;66.20;;;15.11;85.91;95873.00;5034479;28;20033;-49
2022/05/13 01:53:43;;;;;;;13.95;11.40;;;18.60;66.40;;;15.12;85.78;95875.38;5012406;28;20018;-48
2022/05/13 01:56:11;;;;;;;12.32;10.32;;;18.60;66.60;;;15.12;85.82;95872.69;5014576;28;20025;-52
2022/05/13 01:58:38;;;;;;;15.60;10.65;;;18.60;66.50;;;15.10;86.09;95868.69;5015257;28;20115;-53
2022/05/13 02:01:07;;;;;;;16.70;10.18;;;18.60;66.60;;;15.11;85.85;95868.44;4997776;28;20530;-52
2022/05/13 02:03:45;;;;;;;18.48;10.73;;;18.60;66.60;;;15.12;85.91;95882.63;5014716;28;20045;-51
2022/05/13 02:06:19;;;;;;;15.73;10.52;;;18.60;66.60;;;15.12;85.85;95879.97;5015970;28;20497;-49
2022/05/13 02:08:46;;;;;;;16.27;10.77;;;18.60;66.80;;;15.10;85.87;95871.38;5015818;28;20040;-52
2022/05/13 02:11:13;;;;;;;12.70;9.48;;;18.60;66.70;;;15.11;86.00;95871.13;5015575;28;20041;-53
2022/05/13 02:13:42;;;;;;;15.45;9.57;;;18.60;66.80;;;15.10;86.32;95868.69;5015567;28;20022;-49
2022/05/13 02:16:15;;;;;;;16.17;9.75;;;18.60;67.10;;;15.14;86.13;95877.78;5014328;28;20084;-48
2022/05/13 02:18:41;;;;;;;16.92;9.00;;;18.70;67.30;;;15.15;85.90;95874.81;5015322;28;20286;-52
2022/05/13 02:21:08;;;;;;;12.38;9.73;;;18.70;67.10;;;15.13;85.78;95868.13;5014573;28;20046;-52
2022/05/13 02:23:39;;;;;;;13.10;10.23;;;18.60;67.00;;;15.12;85.88;95869.22;4998116;28;20077;-49
2022/05/13 02:26:12;;;;;;;12.18;10.27;;;18.70;67.30;;;15.13;85.85;95862.75;5013971;28;20401;-50
2022/05/13 02:28:44;;;;;;;14.27;10.07;;;18.70;67.30;;;15.12;85.82;95867.34;5013408;28;20034;-49
2022/05/13 02:31:12;;;;;;;15.25;10.00;;;18.70;67.30;;;15.12;85.57;95871.91;5013465;28;20041;-53
2022/05/13 02:33:44;;;;;;;14.55;10.82;;;18.70;67.10;;;15.11;86.13;95873.00;5015454;28;20508;-49
2022/05/13 02:36:13;;;;;;;15.95;10.63;;;18.70;67.50;;;15.09;86.29;95867.91;5015131;28;20362;-50
2022/05/13 02:38:45;;;;;;;14.18;10.23;;;18.70;67.30;;;15.04;86.09;95863.41;5013970;28;20036;-48
2022/05/13 02:41:11;;;;;;;13.75;9.98;;;18.70;67.40;;;15.07;85.74;95883.47;5014005;28;20491;-49
2022/05/13 02:43:47;;;;;;;13.40;10.13;;;18.60;67.30;;;15.04;86.13;95874.13;5015262;28;20064;-50
2022/05/13 02:46:32;;;;;;;12.88;9.88;;;18.60;67.60;;;15.01;86.20;95871.22;5014148;28;20026;-51
2022/05/13 02:49:07;;;;;;;12.82;9.57;;;18.60;67.70;;;15.00;85.86;95874.97;4995871;28;20149;-49
2022/05/13 02:51:33;;;;;;;14.18;10.20;;;18.60;67.60;;;14.99;85.91;95878.75;5012883;28;20029;-51
2022/05/13 02:54:05;;;;;;;12.73;9.50;;;18.60;67.40;;;14.97;85.64;95876.34;4996706;28;20051;-48
2022/05/13 02:56:30;;;;;;;16.60;9.43;;;18.60;67.70;;;14.95;86.26;95872.38;5013897;28;20116;-51
2022/05/13 02:58:59;;;;;;;18.50;11.05;;;18.50;67.40;;;14.92;86.12;95873.75;5012032;28;20176;-50
2022/05/13 03:01:38;;;;;;;15.00;10.10;;;18.50;67.60;;;14.91;85.78;95869.44;5012493;28;20026;-49
2022/05/13 03:04:13;;;;;;;13.48;9.88;;;18.50;67.80;;;14.89;86.06;95873.50;5039814;28;20049;-52
2022/05/13 03:06:39;;;;;;;17.35;10.70;;;18.50;67.90;;;14.88;85.94;95878.06;5013506;28;20084;-51
2022/05/13 03:09:08;;;;;;;16.90;11.00;;;18.50;67.70;;;14.86;86.26;95874.88;5013451;28;20435;-49
2022/05/13 03:11:34;;;;;;;15.07;9.90;;;18.50;67.90;;;14.86;86.30;95874.88;5004463;28;20041;-49
2022/05/13 03:14:05;;;;;;;18.52;10.50;;;18.50;67.90;;;14.83;86.59;95870.06;5025610;28;20041;-53
2022/05/13 03:16:36;;;;;;;15.25;11.02;;;18.40;68.20;;;14.84;86.40;95871.66;5032128;28;20091;-51
2022/05/13 03:19:05;;;;;;;19.25;10.85;;;18.40;68.20;;;14.79;86.81;95869.84;5031655;28;20029;-49
2022/05/13 03:21:37;;;;;;;17.55;10.82;;;18.40;68.20;;;14.82;86.74;95884.53;4986378;28;20041;-49
2022/05/13 03:24:03;;;;;;;16.02;11.15;;;18.40;68.40;;;14.83;86.55;95882.69;4973341;28;20114;-51
2022/05/13 03:26:29;;;;;;;15.80;10.35;;;18.40;68.20;;;14.81;86.56;95891.81;4974627;28;20073;-50
2022/05/13 03:28:55;;;;;;;16.95;10.95;;;18.40;68.30;;;14.81;87.04;95891.00;4974050;28;20098;-53
2022/05/13 03:31:21;;;;;;;15.00;11.18;;;18.40;68.40;;;14.81;87.20;95880.28;4957010;28;20505;-51
2022/05/13 03:33:47;;;;;;;15.00;10.45;;;18.40;68.50;;;14.81;87.20;95880.28;4974521;28;20033;-49
2022/05/13 03:36:22;;;;;;;16.70;10.50;;;18.40;68.60;;;14.83;87.28;95874.66;4973251;28;20026;-51
2022/05/13 03:38:53;;;;;;;17.83;11.40;;;18.40;68.90;;;14.82;87.21;95873.81;4973594;28;20078;-51
2022/05/13 03:41:19;;;;;;;15.63;10.20;;;18.40;68.80;;;14.83;87.23;95874.66;4972099;28;20450;-51
2022/05/13 03:43:45;;;;;;;18.17;11.10;;;18.40;68.70;;;14.84;87.12;95865.50;4972486;28;20078;-53
2022/05/13 03:46:11;;;;;;;16.15;10.35;;;18.40;68.70;;;14.84;86.82;95865.50;4974053;28;20031;-55
2022/05/13 03:48:36;;;;;;;16.55;10.68;;;18.40;68.70;;;14.81;87.17;95869.56;4973408;28;20394;-52
2022/05/13 03:51:05;;;;;;;17.60;10.73;;;18.40;68.70;;;14.76;87.02;95869.59;4973890;28;20042;-48
2022/05/13 03:53:31;;;;;;;15.80;10.13;;;18.40;69.00;;;14.77;87.12;95873.88;4972481;28;20366;-50
2022/05/13 03:56:00;;;;;;;13.07;10.15;;;18.40;68.90;;;14.75;87.15;95868.00;4972895;28;20066;-48
2022/05/13 03:58:32;;;;;;;16.02;10.52;;;18.40;69.00;;;14.77;87.05;95879.25;4965386;28;20078;-50
2022/05/13 04:01:02;;;;;;;11.73;9.67;;;18.40;69.40;;;14.80;87.04;95878.69;4992307;28;20081;-51
2022/05/13 04:03:31;;;;;;;13.38;9.48;;;18.40;69.20;;;14.80;87.10;95868.75;4994228;28;20099;-52
2022/05/13 04:17:19;;;;;;;14.95;9.95;;;18.40;68.80;;;14.71;86.68;95889.22;4992394;28;20057;-52
2022/05/13 04:19:47;;;;;;;14.70;9.80;;;18.30;68.80;;;14.67;86.88;95893.56;4998809;28;20041;-49
2022/05/13 04:22:13;;;;;;;12.90;9.30;;;18.30;68.90;;;14.62;87.31;95903.53;5002378;28;20030;-50
2022/05/13 04:24:42;;;;;;;17.95;9.80;;;18.30;68.90;;;14.63;87.08;95905.13;5013133;28;20049;-53
2022/05/13 04:27:13;;;;;;;13.40;9.63;;;18.30;69.10;;;14.62;87.20;95908.88;5013571;28;20152;-49
2022/05/13 04:29:42;;;;;;;17.63;9.10;;;18.30;69.20;;;14.62;86.91;95901.63;5012102;28;20033;-49
2022/05/13 04:32:11;;;;;;;13.82;9.40;;;18.30;69.10;;;14.61;87.00;95908.09;5012510;28;20034;-49
2022/05/13 04:34:46;;;;;;;15.63;9.88;;;18.30;69.10;;;14.63;86.99;95905.13;5013459;28;20092;-48
2022/05/13 04:37:11;;;;;;;13.20;9.32;;;18.30;69.20;;;14.62;87.16;95912.38;5013283;28;20487;-50
2022/05/13 04:39:43;;;;;;;11.90;9.32;;;18.30;69.00;;;14.62;87.15;95900.84;5012119;28;20057;-49
2022/05/13 04:44:58;;;;;;;15.70;9.93;;;18.30;69.30;;;14.65;87.41;95901.06;5013402;28;20460;-48
2022/05/13 04:50:15;;;;;;;10.93;8.73;;;18.40;69.30;;;14.70;87.44;95895.69;5013172;28;20064;-48
2022/05/13 04:52:40;;;;;;;12.77;8.57;;;18.40;69.40;;;14.74;87.21;95894.03;5014092;28;20056;-48
2022/05/13 04:55:13;;;;;;;11.13;7.70;;;18.50;69.30;;;14.77;87.17;95893.47;5016214;28;20108;-49
2022/05/13 04:57:39;;;;;;;9.27;7.15;;;18.50;69.40;;;14.85;86.86;95896.59;5015912;28;20034;-49
2022/05/13 05:00:11;;;;;;;8.93;6.10;;;18.60;69.20;;;14.89;86.19;95889.59;5015869;28;20045;-51
2022/05/13 05:02:43;;;;;;;6.15;4.82;;;18.70;69.40;;;14.93;85.39;95896.78;5017164;28;20130;-50
2022/05/13 05:05:12;;;;;;;8.77;5.35;;;18.80;69.30;;;15.02;85.00;95895.06;5016245;28;20041;-49
2022/05/13 05:07:44;;;;;;;5.97;4.68;;;18.80;68.90;;;15.09;84.06;95905.47;5017100;28;20071;-49
2022/05/13 05:10:13;;;;;;;8.38;4.45;;;18.90;68.80;;;15.17;83.51;95904.06;5016936;28;20026;-51
2022/05/13 05:12:41;;;;;;;6.03;4.60;;;19.00;68.50;;;15.28;83.22;95908.22;4999898;28;20022;-49
2022/05/13 05:15:09;;;;;;;6.95;4.53;;;19.10;68.30;;;15.34;81.85;95907.06;5016979;28;20044;-51
2022/05/13 05:17:39;;;;;;;5.63;4.13;;;19.10;68.00;;;15.46;81.56;95903.97;4999594;28;20061;-48
2022/05/13 05:20:06;;;;;;;8.30;3.70;;;19.30;67.80;;;15.56;80.01;95916.47;5016734;28;20464;-52
2022/05/13 05:22:32;;;;;;;5.75;3.80;;;19.30;67.20;;;15.73;80.63;95919.47;5015699;28;20111;-49
2022/05/13 05:24:58;;;;;;;6.35;4.28;;;19.50;67.10;;;15.87;80.39;95925.75;5009198;28;20022;-51
2022/05/13 05:27:24;;;;;;;5.88;4.25;;;19.60;67.00;;;16.05;80.94;95920.69;5018263;28;20028;-51
2022/05/13 05:29:49;;;;;;;6.72;4.15;;;19.80;66.80;;;16.22;80.15;95929.03;5016902;28;20397;-49
2022/05/13 05:32:15;;;;;;;7.25;3.90;;;19.90;66.50;;;16.27;79.29;95923.56;5021986;28;20492;-51
2022/05/13 05:34:41;;;;;;;4.90;3.67;;;20.00;66.10;;;16.29;78.72;95928.66;5022166;28;20038;-48
2022/05/13 05:37:09;;;;;;;6.43;3.92;;;20.10;65.70;;;16.34;77.27;95928.59;4994130;28;20049;-50
2022/05/13 05:39:38;;;;;;;7.05;3.60;;;20.30;65.30;;;16.55;76.26;95926.38;5016346;28;20123;-49
2022/05/13 05:42:04;;;;;;;4.88;3.63;;;20.40;64.60;;;16.83;75.97;95929.97;5026092;28;20086;-50
2022/05/13 05:44:30;;;;;;;6.93;3.70;;;20.70;64.00;;;17.08;74.40;95916.06;5001672;28;20091;-50
2022/05/13 05:46:58;;;;;;;4.03;3.20;;;20.90;63.40;;;17.30;74.69;95928.84;5014346;28;20046;-51
2022/05/13 05:49:24;;;;;;;5.32;3.58;;;21.10;63.00;;;17.29;72.62;95927.22;5032337;28;20456;-53
2022/05/13 05:51:49;;;;;;;9.07;4.18;;;21.30;62.30;;;17.37;73.47;95933.03;5009713;28;20029;-50
2022/05/13 05:57:14;;;;;;;4.70;3.15;;;21.50;61.50;;;17.50;75.72;95918.75;5031251;28;20048;-53
2022/05/13 05:59:42;;;;;;;4.93;3.92;;;21.60;61.50;;;17.59;73.71;95930.41;5028445;28;20025;-51
2022/05/13 06:02:08;;;;;;;6.07;3.97;;;21.70;61.30;;;17.48;74.34;95921.72;5016410;28;20116;-50
2022/05/13 06:04:36;;;;;;;4.72;3.88;;;21.70;61.00;;;17.62;74.26;95929.03;5025276;28;20453;-48
2022/05/13 06:07:04;;;;;;;8.13;3.70;;;21.80;60.90;;;17.68;74.06;95936.69;5014704;28;20037;-50
2022/05/13 06:09:30;;;;;;;5.55;3.72;;;21.90;60.60;;;17.74;73.14;95935.50;5015342;28;20026;-52
2022/05/13 06:11:56;;;;;;;3.95;3.60;;;22.00;60.10;;;17.85;74.50;95932.63;5016180;28;20030;-52
2022/05/13 06:14:26;;;;;;;4.97;3.80;;;22.10;60.10;;;18.00;74.56;95941.16;5027031;28;20080;-52
2022/05/13 06:16:53;;;;;;;4.90;3.72;;;22.30;60.20;;;18.12;75.25;95939.84;5016133;28;20509;-51
2022/05/13 06:19:19;;;;;;;6.20;3.78;;;22.40;60.10;;;18.21;74.03;95938.03;5009148;28;20030;-50
2022/05/13 06:21:48;;;;;;;6.13;3.65;;;22.50;60.10;;;18.30;72.39;95932.69;5022471;28;20029;-53
2022/05/13 06:24:14;;;;;;;6.05;4.03;;;22.60;59.70;;;18.34;71.89;95933.69;5018531;28;20061;-53
2022/05/13 06:26:42;;;;;;;5.40;3.92;;;22.70;59.30;;;18.43;71.52;95931.88;5005831;28;20046;-49
2022/05/13 06:29:08;;;;;;;6.63;3.55;;;22.80;59.10;;;18.53;70.84;95939.69;5011908;28;20036;-54
2022/05/13 06:31:35;;;;;;;4.45;3.63;;;22.90;58.80;;;18.71;69.97;95944.13;4994204;28;20034;-56
2022/05/13 06:34:07;;;;;;;5.05;3.63;;;23.10;58.40;;;18.83;70.83;95940.06;5020828;28;20057;-51
2022/05/13 06:36:34;;;;;;;7.78;3.80;;;23.30;58.20;;;18.91;70.40;95937.44;5035074;28;20044;-51
2022/05/13 06:39:15;;;;;;;4.88;3.97;;;23.50;58.00;;;19.07;68.72;95948.63;5017368;28;20508;-52
2022/05/13 06:41:41;;;;;;;7.78;4.55;;;23.60;57.60;;;19.10;68.52;95947.22;5013566;28;20026;-50
2022/05/13 06:44:08;;;;;;;5.97;3.60;;;23.60;57.40;;;19.16;68.97;95946.00;5015060;28;20030;-55
2022/05/13 06:46:40;;;;;;;5.25;3.70;;;23.60;57.30;;;19.24;69.48;95941.72;4995138;28;20366;-54
2022/05/13 06:49:07;;;;;;;8.88;3.58;;;23.70;57.20;;;19.22;66.94;95950.16;5010361;28;20105;-50
2022/05/13 06:51:42;;;;;;;6.97;4.05;;;23.70;56.60;;;19.24;68.84;95945.25;5002274;28;20040;-49
2022/05/13 06:54:12;;;;;;;7.68;3.75;;;23.80;56.50;;;19.23;67.07;95943.63;4997353;28;20032;-53
2022/05/13 06:56:41;;;;;;;7.35;3.72;;;23.80;56.20;;;19.12;66.81;95945.03;5011713;28;20061;-54
2022/05/13 06:59:10;;;;;;;4.90;3.58;;;23.90;55.50;;;19.16;66.09;95951.38;4989012;28;20390;-53
2022/05/13 07:01:37;;;;;;;5.18;3.47;;;24.00;55.10;;;19.21;66.19;95939.66;4991067;28;20445;-51
2022/05/13 07:04:04;;;;;;;5.43;3.30;;;24.10;54.80;;;19.39;67.75;95949.41;4988198;28;20026;-50
2022/05/13 07:06:30;;;;;;;4.82;3.47;;;24.10;54.90;;;19.53;67.80;95958.22;5012898;28;20036;-50
2022/05/13 07:08:56;;;;;;;3.80;3.22;;;24.30;55.00;;;19.52;65.32;95958.53;5013529;28;20098;-53
2022/05/13 07:11:23;;;;;;;6.18;3.58;;;24.50;54.50;;;19.67;65.29;95957.34;5032475;28;20037;-49
2022/05/13 07:13:55;;;;;;;4.13;2.95;;;24.60;53.90;;;19.86;64.96;95958.66;5016662;28;20053;-49
2022/05/13 07:16:24;;;;;;;4.32;3.10;;;24.80;53.60;;;20.02;64.53;95958.22;5016167;28;20033;-52
2022/05/13 07:19:06;;;;;;;7.22;3.30;;;24.90;53.40;;;20.04;63.75;95951.38;5034229;28;20113;-50
2022/05/13 07:21:32;;;;;;;3.15;2.85;;;25.00;52.90;;;20.17;63.05;95960.47;5023102;28;20528;-51
2022/05/13 07:24:03;;;;;;;4.22;3.05;;;25.00;52.60;;;20.28;61.00;95969.88;5013188;28;20067;-50
2022/05/13 07:26:38;;;;;;;3.30;3.00;;;25.30;51.90;;;20.56;60.50;95958.78;5014456;28;20489;-50
2022/05/13 07:29:06;;;;;;;3.97;3.42;;;25.80;51.10;;;20.91;59.33;95959.53;5014768;28;20401;-51
2022/05/13 07:31:34;;;;;;;4.43;3.30;;;26.40;50.20;;;21.17;59.03;95967.59;5014844;28;20481;-49
2022/05/13 07:34:03;;;;;;;5.63;3.40;;;26.70;49.60;;;21.38;57.77;95959.59;5012922;28;20030;-51
2022/05/13 07:36:29;;;;;;;5.25;3.33;;;26.90;49.00;;;21.46;58.05;95953.31;5014698;28;20492;-53
2022/05/13 07:41:57;;;;;;;4.60;3.17;;;27.00;48.00;;;21.05;58.74;95975.56;5014253;28;20096;-52
2022/05/13 07:44:24;;;;;;;3.90;3.35;;;26.80;47.50;;;20.95;58.71;95967.78;5012271;28;20084;-55
2022/05/13 07:46:51;;;;;;;4.38;3.28;;;26.70;47.50;;;20.89;59.24;95966.38;5012396;28;20029;-51
2022/05/13 07:49:19;;;;;;;4.72;3.22;;;26.50;47.50;;;20.79;58.66;95967.50;5013070;28;20481;-52
2022/05/13 07:51:45;;;;;;;4.57;3.65;;;26.30;47.50;;;20.67;59.34;95965.44;5013300;28;20048;-50
2022/05/13 07:54:11;;;;;;;6.80;3.53;;;26.10;47.60;;;20.71;58.94;95966.38;4996888;28;20030;-52
2022/05/13 07:56:37;;;;;;;6.03;3.10;;;25.90;47.90;;;20.45;59.34;95960.16;5014121;28;20515;-50
2022/05/13 07:59:02;;;;;;;4.18;3.28;;;25.70;48.00;;;20.22;60.14;95962.22;5012764;28;20033;-49
2022/05/13 08:01:54;;;;;;;3.33;3.03;;;25.60;48.10;;;20.27;60.66;95964.75;5012697;28;20079;-50
2022/05/13 08:04:26;;;;;;;5.88;3.83;;;25.40;48.20;;;20.31;60.39;95958.41;5014109;28;20034;-53
2022/05/13 08:06:51;;;;;;;4.57;3.15;;;25.30;48.60;;;20.37;60.91;95956.34;5013064;28;20052;-52
2022/05/13 08:09:18;;;;;;;4.47;3.10;;;25.30;48.70;;;20.44;59.72;95975.59;5012752;28;20065;-56
2022/05/13 08:11:51;;;;;;;5.60;3.30;;;25.40;48.70;;;20.60;60.63;95975.97;5012493;28;20080;-50
2022/05/13 08:14:20;;;;;;;6.72;3.15;;;25.50;48.90;;;20.67;60.54;95978.19;5013993;28;20112;-52
2022/05/13 08:16:46;;;;;;;6.30;3.50;;;25.60;48.80;;;20.80;60.36;95982.63;5013976;28;20061;-51
2022/05/13 08:19:11;;;;;;;6.10;3.35;;;25.70;48.80;;;20.85;59.74;95963.50;5030181;22;20151;-55
2022/05/13 08:21:37;;;;;;;4.25;3.65;;;26.00;48.60;;;21.08;59.01;95977.66;5049287;28;20398;-54
2022/05/13 08:24:06;;;;;;;7.53;4.03;;;26.30;48.20;;;21.34;58.45;95976.78;5050415;28;20029;-54
2022/05/13 08:26:32;;;;;;;7.18;3.45;;;26.70;47.80;;;21.56;58.33;95982.00;5052295;28;20040;-55
2022/05/13 08:29:01;;;;;;;4.60;3.35;;;27.00;47.50;;;21.79;58.00;95979.03;5049647;28;20021;-54
2022/05/13 08:31:27;;;;;;;4.03;3.58;;;27.20;47.20;;;21.90;56.42;95981.03;5051047;28;20665;-56
2022/05/13 08:33:59;;;;;;;5.53;4.47;;;27.30;46.90;;;21.90;56.65;95981.03;5051005;28;20126;-55
2022/05/13 08:36:25;;;;;;;6.68;4.03;;;27.50;46.50;;;22.02;56.41;95982.25;5052351;28;20040;-55
2022/05/13 08:38:51;;;;;;;5.88;3.95;;;27.70;46.20;;;21.91;56.48;95984.56;5051970;28;20033;-57
2022/05/13 08:41:48;;;;;;;5.45;3.70;;;27.80;45.60;;;22.14;55.73;95987.75;5050719;28;20387;-57
2022/05/13 08:44:15;;;;;;;5.70;4.00;;;27.90;45.40;;;22.23;55.92;95985.03;5052234;28;20082;-57
2022/05/13 08:46:57;;;;;;;5.30;3.85;;;27.90;45.40;;;22.22;55.76;95978.00;5050666;28;20021;-55
2022/05/13 08:49:46;;;;;;;8.52;3.72;;;27.80;45.40;;;22.07;56.24;95987.50;5014536;28;20025;-57
2022/05/13 08:53:06;;;;;;;4.30;3.90;;;27.80;45.90;;;21.94;57.12;95989.31;5024670;28;20396;-54
2022/05/13 08:55:57;;;;;;;6.07;3.92;;;27.60;45.20;;;21.95;56.95;95988.19;5039691;28;20033;-54
2022/05/13 08:58:33;;;;;;;5.57;3.40;;;27.30;45.60;;;21.84;56.49;95984.25;5025705;28;20025;-55
2022/05/13 09:01:01;;;;;;;7.95;4.70;;;27.20;45.70;;;21.84;57.21;95990.50;5025636;28;20026;-55
2022/05/13 09:03:53;;;;;;;5.03;4.18;;;27.00;45.80;;;21.81;57.96;96003.88;5027938;28;20021;-56
2022/05/13 09:06:53;;;;;;;6.40;3.65;;;27.00;46.10;;;21.70;56.81;96006.19;5050138;28;20398;-54
2022/05/13 09:09:25;;;;;;;6.50;4.45;;;27.10;46.00;;;21.81;57.17;96012.84;5035047;28;20022;-52
2022/05/13 09:11:54;;;;;;;9.07;5.80;;;27.30;45.70;;;21.74;56.66;96014.44;5024165;28;20026;-53
2022/05/13 09:14:37;;;;;;;6.15;4.53;;;27.50;45.40;;;21.75;57.69;96011.44;5022794;28;20369;-55
2022/05/13 09:17:36;;;;;;;6.55;4.78;;;27.60;45.30;;;21.82;57.72;96019.84;5010181;28;20034;-50
2022/05/13 09:20:11;;;;;;;5.75;4.50;;;27.50;45.40;;;21.76;56.47;96015.72;5034195;28;20041;-55
2022/05/13 09:22:51;;;;;;;6.20;4.30;;;27.50;45.30;;;21.55;56.92;96021.06;5023306;28;20037;-54
2022/05/13 09:25:44;;;;;;;6.22;4.30;;;27.40;45.10;;;21.22;57.17;96018.88;5029887;28;20022;-53
2022/05/13 09:28:14;;;;;;;7.45;4.32;;;27.30;44.80;;;21.17;57.73;96019.03;5030310;28;20021;-56
2022/05/13 09:30:50;;;;;;;5.18;3.75;;;27.30;44.80;;;21.06;57.52;96027.81;5026566;28;20026;-55
2022/05/13 09:33:38;;;;;;;5.82;3.92;;;27.30;44.60;;;20.94;58.58;96020.38;5014058;28;20026;-51
2022/05/13 09:36:29;;;;;;;6.57;4.25;;;27.20;44.60;;;20.94;59.16;96034.69;5023496;28;20629;-51
2022/05/13 09:39:20;;;;;;;6.15;4.22;;;27.10;44.80;;;20.83;59.56;96035.34;5024849;28;20109;-56
2022/05/13 09:41:48;;;;;;;10.00;5.05;;;26.90;45.00;;;20.89;59.70;96029.44;5037454;28;20136;-56
2022/05/13 09:44:25;;;;;;;5.43;4.53;;;26.80;45.40;;;20.72;59.94;96030.25;5039575;28;20025;-57
2022/05/13 09:47:12;;;;;;;9.70;5.13;;;26.50;45.80;;;20.38;61.03;96025.56;5047303;28;20079;-53
2022/05/13 09:49:42;;;;;;;7.90;4.90;;;26.10;46.20;;;20.01;61.97;96033.13;5034116;28;20021;-56
2022/05/13 09:52:29;;;;;;;13.35;5.40;;;25.70;46.50;;;19.76;62.99;96040.03;5033874;28;20014;-53
2022/05/13 09:55:03;;;;;;;7.90;4.75;;;25.40;47.20;;;19.53;63.27;96035.78;5014195;28;20021;-53
2022/05/13 09:57:39;;;;;;;6.28;4.75;;;25.10;47.60;;;19.05;66.17;96029.13;5031827;28;20025;-57
2022/05/13 10:00:22;;;;;;;6.00;4.63;;;24.80;48.60;;;18.72;67.71;96039.34;5040493;28;20037;-55
2022/05/13 10:03:04;;;;;;;5.32;4.18;;;24.50;49.40;;;18.50;68.91;96040.91;5038859;28;20025;-54
2022/05/13 10:05:32;;;;;;;8.70;4.22;;;24.30;49.60;;;18.42;69.06;96044.31;5034593;28;20388;-56
2022/05/13 10:08:18;;;;;;;6.03;4.00;;;24.30;49.80;;;18.25;67.44;96033.38;5042362;28;20499;-50
2022/05/13 10:14:00;;;;;;;7.18;4.03;;;24.00;50.10;;;18.25;67.86;96038.75;5029967;28;20078;-54
2022/05/13 10:16:42;;;;;;;7.47;4.20;;;23.70;50.40;;;18.10;66.97;96041.78;5033349;28;20034;-54
2022/05/13 10:19:18;;;;;;;9.90;4.20;;;23.50;51.30;;;18.07;66.83;96037.78;5034460;28;20029;-54
2022/05/13 10:22:07;;;;;;;8.75;3.90;;;23.30;50.90;;;17.94;66.52;96042.09;5033455;28;20713;-55
2022/05/13 10:25:00;;;;;;;7.70;3.63;;;23.20;51.10;;;17.86;65.99;96031.19;5049249;28;20037;-52
2022/05/13 10:27:53;;;;;;;;;;;23.00;51.20;;;17.98;65.18;96034.19;5033216;28;20502;-55
2022/05/13 10:30:54;;;;;;;5.97;3.42;;;22.80;51.00;;;17.93;65.03;96018.94;5052863;28;19915;-56
2022/05/13 10:33:46;;;;;;;6.25;3.75;;;22.90;51.10;;;18.08;65.60;96027.78;5052155;28;20395;-51
2022/05/13 10:36:33;;;;;;;7.63;3.80;;;22.90;51.30;;;18.11;66.51;96033.38;5053689;28;20029;-53
2022/05/13 10:39:13;;;;;;;6.28;4.05;;;23.00;51.30;;;18.08;66.11;96033.19;5053573;28;20029;-57
2022/05/13 10:41:50;;;;;;;10.60;4.55;;;23.10;51.50;;;18.06;67.58;96040.78;5051793;28;20432;-54
2022/05/13 10:44:43;;;;;;;8.63;4.03;;;23.20;51.70;;;17.96;68.56;96037.19;5052423;28;20079;-51
2022/05/13 10:47:20;;;;;;;8.35;4.05;;;23.20;51.80;;;17.93;68.13;96034.31;5053683;28;20021;-55
2022/05/13 10:49:47;;;;;;;6.32;4.03;;;23.10;51.70;;;18.04;66.80;96035.69;5017432;28;20033;-50
2022/05/13 10:52:48;;;;;;;9.48;4.15;;;23.10;51.70;;;18.12;67.62;96039.59;5026695;28;20029;-51
2022/05/13 10:55:43;;;;;;;9.65;5.05;;;23.20;51.90;;;18.06;66.94;96035.41;5033544;28;20032;-55
2022/05/13 10:58:35;;;;;;;7.55;4.38;;;23.50;51.80;;;18.30;68.38;96035.16;5032432;28;20037;-52
2022/05/13 11:01:40;;;;;;;7.35;4.20;;;23.70;51.70;;;18.66;67.77;96030.56;5030233;28;20030;-54